sensor_id;sensor_type;location;lat;lon;timestamp;P1;durP1;ratioP1;P2;durP2;ratioP2
71665;SDS011;59503;53.486;10.196;2023-11-21T00:01:16;22.07;;;6.93;;
71665;SDS011;59503;53.486;10.196;2023-11-21T00:03:42;17.88;;;6.53;;
71665;SDS011;59503;53.486;10.196;2023-11-21T00:06:08;18.13;;;6.32;;
71665;SDS011;59503;53.486;10.196;2023-11-21T00:08:34;23.60;;;6.33;;
71665;SDS011;59503;53.486;10.196;2023-11-21T00:11:00;22.75;;;6.50;;
71665;SDS011;59503;53.486;10.196;2023-11-21T00:13:26;17.67;;;5.87;;
71665;SDS011;59503;53.486;10.196;2023-11-21T00:15:52;21.63;;;6.80;;
71665;SDS011;59503;53.486;10.196;2023-11-21T00:18:17;22.90;;;7.10;;
71665;SDS011;59503;53.486;10.196;2023-11-21T00:20:43;16.40;;;6.00;;
71665;SDS011;59503;53.486;10.196;2023-11-21T00:23:08;22.40;;;7.23;;
71665;SDS011;59503;53.486;10.196;2023-11-21T00:25:34;25.25;;;7.35;;
71665;SDS011;59503;53.486;10.196;2023-11-21T00:28:00;19.63;;;6.20;;
71665;SDS011;59503;53.486;10.196;2023-11-21T00:30:26;17.05;;;6.57;;
71665;SDS011;59503;53.486;10.196;2023-11-21T00:32:53;15.38;;;5.85;;
71665;SDS011;59503;53.486;10.196;2023-11-21T00:35:19;18.50;;;5.73;;
71665;SDS011;59503;53.486;10.196;2023-11-21T00:37:45;15.95;;;5.93;;
71665;SDS011;59503;53.486;10.196;2023-11-21T00:40:10;21.10;;;8.00;;
71665;SDS011;59503;53.486;10.196;2023-11-21T00:42:36;19.58;;;7.72;;
71665;SDS011;59503;53.486;10.196;2023-11-21T00:45:02;20.13;;;7.50;;
71665;SDS011;59503;53.486;10.196;2023-11-21T00:47:28;19.45;;;7.78;;
71665;SDS011;59503;53.486;10.196;2023-11-21T00:49:54;21.10;;;8.23;;
71665;SDS011;59503;53.486;10.196;2023-11-21T00:52:20;20.48;;;7.78;;
71665;SDS011;59503;53.486;10.196;2023-11-21T00:54:46;21.30;;;8.23;;
71665;SDS011;59503;53.486;10.196;2023-11-21T00:57:13;21.48;;;8.02;;
71665;SDS011;59503;53.486;10.196;2023-11-21T00:59:38;19.97;;;7.23;;
71665;SDS011;59503;53.486;10.196;2023-11-21T01:02:04;22.17;;;7.87;;
71665;SDS011;59503;53.486;10.196;2023-11-21T01:04:30;18.87;;;7.40;;
71665;SDS011;59503;53.486;10.196;2023-11-21T01:06:57;20.37;;;8.47;;
71665;SDS011;59503;53.486;10.196;2023-11-21T01:09:23;19.70;;;7.93;;
71665;SDS011;59503;53.486;10.196;2023-11-21T01:11:49;20.43;;;8.17;;
71665;SDS011;59503;53.486;10.196;2023-11-21T01:14:14;22.50;;;8.73;;
71665;SDS011;59503;53.486;10.196;2023-11-21T01:16:40;23.20;;;8.83;;
71665;SDS011;59503;53.486;10.196;2023-11-21T01:19:05;20.40;;;8.47;;
71665;SDS011;59503;53.486;10.196;2023-11-21T01:21:31;26.55;;;9.75;;
71665;SDS011;59503;53.486;10.196;2023-11-21T01:23:57;23.10;;;9.00;;
71665;SDS011;59503;53.486;10.196;2023-11-21T01:26:22;19.85;;;8.68;;
71665;SDS011;59503;53.486;10.196;2023-11-21T01:28:48;23.43;;;9.53;;
71665;SDS011;59503;53.486;10.196;2023-11-21T01:31:14;19.60;;;7.88;;
71665;SDS011;59503;53.486;10.196;2023-11-21T01:33:40;19.30;;;7.57;;
71665;SDS011;59503;53.486;10.196;2023-11-21T01:36:06;16.30;;;7.37;;
71665;SDS011;59503;53.486;10.196;2023-11-21T01:38:31;22.40;;;8.32;;
71665;SDS011;59503;53.486;10.196;2023-11-21T01:40:57;16.53;;;7.53;;
71665;SDS011;59503;53.486;10.196;2023-11-21T01:43:26;17.92;;;8.02;;
71665;SDS011;59503;53.486;10.196;2023-11-21T01:45:52;17.17;;;7.88;;
71665;SDS011;59503;53.486;10.196;2023-11-21T01:48:22;17.90;;;7.97;;
71665;SDS011;59503;53.486;10.196;2023-11-21T01:50:48;14.20;;;6.90;;
71665;SDS011;59503;53.486;10.196;2023-11-21T01:53:14;15.17;;;6.70;;
71665;SDS011;59503;53.486;10.196;2023-11-21T01:55:40;12.75;;;6.07;;
71665;SDS011;59503;53.486;10.196;2023-11-21T01:58:07;12.32;;;6.07;;
71665;SDS011;59503;53.486;10.196;2023-11-21T02:00:33;11.27;;;5.83;;
71665;SDS011;59503;53.486;10.196;2023-11-21T02:02:59;14.57;;;5.95;;
71665;SDS011;59503;53.486;10.196;2023-11-21T02:05:24;12.83;;;6.63;;
71665;SDS011;59503;53.486;10.196;2023-11-21T02:07:51;13.07;;;6.07;;
71665;SDS011;59503;53.486;10.196;2023-11-21T02:10:17;11.57;;;4.90;;
71665;SDS011;59503;53.486;10.196;2023-11-21T02:12:48;11.77;;;5.23;;
71665;SDS011;59503;53.486;10.196;2023-11-21T02:15:17;10.82;;;5.07;;
71665;SDS011;59503;53.486;10.196;2023-11-21T02:17:47;10.98;;;5.13;;
71665;SDS011;59503;53.486;10.196;2023-11-21T02:20:19;10.77;;;4.78;;
71665;SDS011;59503;53.486;10.196;2023-11-21T02:22:52;10.27;;;3.97;;
71665;SDS011;59503;53.486;10.196;2023-11-21T02:25:25;11.23;;;4.97;;
71665;SDS011;59503;53.486;10.196;2023-11-21T02:27:53;9.15;;;4.78;;
71665;SDS011;59503;53.486;10.196;2023-11-21T02:30:20;10.35;;;4.45;;
71665;SDS011;59503;53.486;10.196;2023-11-21T02:32:47;14.15;;;5.25;;
71665;SDS011;59503;53.486;10.196;2023-11-21T02:35:13;12.57;;;4.82;;
71665;SDS011;59503;53.486;10.196;2023-11-21T02:37:39;8.83;;;4.40;;
71665;SDS011;59503;53.486;10.196;2023-11-21T02:40:06;13.15;;;4.43;;
71665;SDS011;59503;53.486;10.196;2023-11-21T02:42:35;10.88;;;5.00;;
71665;SDS011;59503;53.486;10.196;2023-11-21T02:45:00;11.40;;;5.37;;
71665;SDS011;59503;53.486;10.196;2023-11-21T02:47:26;11.85;;;4.88;;
71665;SDS011;59503;53.486;10.196;2023-11-21T02:49:51;9.90;;;5.10;;
71665;SDS011;59503;53.486;10.196;2023-11-21T02:52:17;10.05;;;4.80;;
71665;SDS011;59503;53.486;10.196;2023-11-21T02:54:44;12.03;;;5.33;;
71665;SDS011;59503;53.486;10.196;2023-11-21T02:57:09;14.27;;;5.85;;
71665;SDS011;59503;53.486;10.196;2023-11-21T02:59:35;10.20;;;5.00;;
71665;SDS011;59503;53.486;10.196;2023-11-21T03:02:01;13.95;;;5.20;;
71665;SDS011;59503;53.486;10.196;2023-11-21T03:04:26;10.87;;;5.07;;
71665;SDS011;59503;53.486;10.196;2023-11-21T03:06:52;12.87;;;5.73;;
71665;SDS011;59503;53.486;10.196;2023-11-21T03:09:17;13.68;;;6.03;;
71665;SDS011;59503;53.486;10.196;2023-11-21T03:11:42;14.23;;;5.90;;
71665;SDS011;59503;53.486;10.196;2023-11-21T03:14:08;17.27;;;5.17;;
71665;SDS011;59503;53.486;10.196;2023-11-21T03:16:33;11.87;;;5.43;;
71665;SDS011;59503;53.486;10.196;2023-11-21T03:18:59;12.13;;;5.38;;
71665;SDS011;59503;53.486;10.196;2023-11-21T03:21:25;15.10;;;6.00;;
71665;SDS011;59503;53.486;10.196;2023-11-21T03:23:51;13.27;;;5.55;;
71665;SDS011;59503;53.486;10.196;2023-11-21T03:26:17;14.80;;;5.85;;
71665;SDS011;59503;53.486;10.196;2023-11-21T03:28:43;16.30;;;6.60;;
71665;SDS011;59503;53.486;10.196;2023-11-21T03:31:08;12.80;;;5.50;;
71665;SDS011;59503;53.486;10.196;2023-11-21T03:33:37;13.55;;;5.50;;
71665;SDS011;59503;53.486;10.196;2023-11-21T03:36:02;13.00;;;5.83;;
71665;SDS011;59503;53.486;10.196;2023-11-21T03:38:29;13.77;;;6.35;;
71665;SDS011;59503;53.486;10.196;2023-11-21T03:40:54;15.60;;;5.70;;
71665;SDS011;59503;53.486;10.196;2023-11-21T03:43:19;14.63;;;6.90;;
71665;SDS011;59503;53.486;10.196;2023-11-21T03:45:45;14.93;;;6.00;;
71665;SDS011;59503;53.486;10.196;2023-11-21T03:48:12;13.43;;;6.27;;
71665;SDS011;59503;53.486;10.196;2023-11-21T03:50:38;13.27;;;5.88;;
71665;SDS011;59503;53.486;10.196;2023-11-21T03:53:03;14.70;;;6.20;;
71665;SDS011;59503;53.486;10.196;2023-11-21T03:55:29;14.30;;;5.73;;
71665;SDS011;59503;53.486;10.196;2023-11-21T03:57:56;11.77;;;6.00;;
71665;SDS011;59503;53.486;10.196;2023-11-21T04:00:22;15.57;;;6.35;;
71665;SDS011;59503;53.486;10.196;2023-11-21T04:02:48;15.23;;;6.47;;
71665;SDS011;59503;53.486;10.196;2023-11-21T04:05:13;17.47;;;6.07;;
71665;SDS011;59503;53.486;10.196;2023-11-21T04:07:39;15.43;;;6.38;;
71665;SDS011;59503;53.486;10.196;2023-11-21T04:10:05;12.80;;;6.20;;
71665;SDS011;59503;53.486;10.196;2023-11-21T04:12:34;12.98;;;6.47;;
71665;SDS011;59503;53.486;10.196;2023-11-21T04:15:00;15.52;;;6.40;;
71665;SDS011;59503;53.486;10.196;2023-11-21T04:17:25;12.50;;;6.00;;
71665;SDS011;59503;53.486;10.196;2023-11-21T04:19:51;15.23;;;6.07;;
71665;SDS011;59503;53.486;10.196;2023-11-21T04:22:16;14.37;;;6.17;;
71665;SDS011;59503;53.486;10.196;2023-11-21T04:24:42;12.48;;;5.85;;
71665;SDS011;59503;53.486;10.196;2023-11-21T04:27:07;12.03;;;5.80;;
71665;SDS011;59503;53.486;10.196;2023-11-21T04:29:33;12.53;;;6.60;;
71665;SDS011;59503;53.486;10.196;2023-11-21T04:31:58;13.02;;;6.22;;
71665;SDS011;59503;53.486;10.196;2023-11-21T04:34:24;15.32;;;6.10;;
71665;SDS011;59503;53.486;10.196;2023-11-21T04:36:50;13.77;;;6.37;;
71665;SDS011;59503;53.486;10.196;2023-11-21T04:39:15;22.07;;;6.87;;
71665;SDS011;59503;53.486;10.196;2023-11-21T04:41:40;14.20;;;6.60;;
71665;SDS011;59503;53.486;10.196;2023-11-21T04:44:06;13.02;;;5.72;;
71665;SDS011;59503;53.486;10.196;2023-11-21T04:46:31;15.20;;;6.17;;
71665;SDS011;59503;53.486;10.196;2023-11-21T04:48:58;14.98;;;6.20;;
71665;SDS011;59503;53.486;10.196;2023-11-21T04:51:24;15.40;;;6.22;;
71665;SDS011;59503;53.486;10.196;2023-11-21T04:53:49;15.80;;;6.20;;
71665;SDS011;59503;53.486;10.196;2023-11-21T04:56:15;14.75;;;5.82;;
71665;SDS011;59503;53.486;10.196;2023-11-21T04:58:41;12.83;;;6.13;;
71665;SDS011;59503;53.486;10.196;2023-11-21T05:01:07;14.27;;;6.97;;
71665;SDS011;59503;53.486;10.196;2023-11-21T05:03:32;12.50;;;6.05;;
71665;SDS011;59503;53.486;10.196;2023-11-21T05:05:59;11.93;;;5.60;;
71665;SDS011;59503;53.486;10.196;2023-11-21T05:08:24;15.95;;;6.43;;
71665;SDS011;59503;53.486;10.196;2023-11-21T05:10:51;12.07;;;5.40;;
71665;SDS011;59503;53.486;10.196;2023-11-21T05:13:17;13.93;;;5.53;;
71665;SDS011;59503;53.486;10.196;2023-11-21T05:15:43;15.02;;;5.40;;
71665;SDS011;59503;53.486;10.196;2023-11-21T05:18:09;13.48;;;5.90;;
71665;SDS011;59503;53.486;10.196;2023-11-21T05:20:35;16.37;;;5.53;;
71665;SDS011;59503;53.486;10.196;2023-11-21T05:23:02;14.32;;;6.13;;
71665;SDS011;59503;53.486;10.196;2023-11-21T05:25:27;13.27;;;5.63;;
71665;SDS011;59503;53.486;10.196;2023-11-21T05:27:53;12.17;;;5.97;;
71665;SDS011;59503;53.486;10.196;2023-11-21T05:30:19;14.13;;;6.47;;
71665;SDS011;59503;53.486;10.196;2023-11-21T05:32:46;15.02;;;6.18;;
71665;SDS011;59503;53.486;10.196;2023-11-21T05:35:11;14.80;;;6.40;;
71665;SDS011;59503;53.486;10.196;2023-11-21T05:37:40;14.25;;;6.80;;
71665;SDS011;59503;53.486;10.196;2023-11-21T05:40:10;10.98;;;5.53;;
71665;SDS011;59503;53.486;10.196;2023-11-21T05:42:36;14.63;;;6.35;;
71665;SDS011;59503;53.486;10.196;2023-11-21T05:45:03;14.33;;;5.83;;
71665;SDS011;59503;53.486;10.196;2023-11-21T05:47:42;12.30;;;6.43;;
71665;SDS011;59503;53.486;10.196;2023-11-21T05:50:11;13.13;;;6.32;;
71665;SDS011;59503;53.486;10.196;2023-11-21T05:52:40;13.82;;;5.90;;
71665;SDS011;59503;53.486;10.196;2023-11-21T05:55:07;13.57;;;6.50;;
71665;SDS011;59503;53.486;10.196;2023-11-21T05:57:33;12.07;;;5.90;;
71665;SDS011;59503;53.486;10.196;2023-11-21T06:00:11;16.08;;;6.25;;
71665;SDS011;59503;53.486;10.196;2023-11-21T06:02:57;12.77;;;5.97;;
71665;SDS011;59503;53.486;10.196;2023-11-21T06:05:23;14.30;;;6.43;;
71665;SDS011;59503;53.486;10.196;2023-11-21T06:07:49;11.48;;;6.22;;
71665;SDS011;59503;53.486;10.196;2023-11-21T06:10:20;12.63;;;6.28;;
71665;SDS011;59503;53.486;10.196;2023-11-21T06:12:47;13.68;;;6.45;;
71665;SDS011;59503;53.486;10.196;2023-11-21T06:15:12;13.93;;;6.33;;
71665;SDS011;59503;53.486;10.196;2023-11-21T06:17:41;13.32;;;5.80;;
71665;SDS011;59503;53.486;10.196;2023-11-21T06:20:08;11.57;;;5.88;;
71665;SDS011;59503;53.486;10.196;2023-11-21T06:22:36;14.20;;;6.03;;
71665;SDS011;59503;53.486;10.196;2023-11-21T06:25:02;12.20;;;5.97;;
71665;SDS011;59503;53.486;10.196;2023-11-21T06:27:29;15.52;;;6.32;;
71665;SDS011;59503;53.486;10.196;2023-11-21T06:29:55;15.45;;;6.97;;
71665;SDS011;59503;53.486;10.196;2023-11-21T06:32:20;14.13;;;6.57;;
71665;SDS011;59503;53.486;10.196;2023-11-21T06:34:47;14.35;;;6.07;;
71665;SDS011;59503;53.486;10.196;2023-11-21T06:37:14;18.52;;;7.07;;
71665;SDS011;59503;53.486;10.196;2023-11-21T06:39:40;13.90;;;6.50;;
71665;SDS011;59503;53.486;10.196;2023-11-21T06:42:05;12.73;;;6.07;;
71665;SDS011;59503;53.486;10.196;2023-11-21T06:44:31;16.90;;;6.77;;
71665;SDS011;59503;53.486;10.196;2023-11-21T06:46:58;14.43;;;6.60;;
71665;SDS011;59503;53.486;10.196;2023-11-21T06:49:23;11.43;;;6.50;;
71665;SDS011;59503;53.486;10.196;2023-11-21T06:51:49;17.63;;;6.80;;
71665;SDS011;59503;53.486;10.196;2023-11-21T06:54:14;13.43;;;6.47;;
71665;SDS011;59503;53.486;10.196;2023-11-21T06:56:40;13.87;;;6.50;;
71665;SDS011;59503;53.486;10.196;2023-11-21T06:59:06;13.17;;;6.33;;
71665;SDS011;59503;53.486;10.196;2023-11-21T07:01:31;15.25;;;6.82;;
71665;SDS011;59503;53.486;10.196;2023-11-21T07:04:04;17.75;;;6.72;;
71665;SDS011;59503;53.486;10.196;2023-11-21T07:06:31;13.07;;;6.43;;
71665;SDS011;59503;53.486;10.196;2023-11-21T07:08:56;15.05;;;6.60;;
71665;SDS011;59503;53.486;10.196;2023-11-21T07:11:22;16.37;;;7.03;;
71665;SDS011;59503;53.486;10.196;2023-11-21T07:13:47;13.85;;;6.70;;
71665;SDS011;59503;53.486;10.196;2023-11-21T07:16:13;17.60;;;7.17;;
71665;SDS011;59503;53.486;10.196;2023-11-21T07:18:40;14.98;;;6.50;;
71665;SDS011;59503;53.486;10.196;2023-11-21T07:21:05;14.77;;;6.33;;
71665;SDS011;59503;53.486;10.196;2023-11-21T07:23:31;14.07;;;6.23;;
71665;SDS011;59503;53.486;10.196;2023-11-21T07:25:56;14.15;;;6.85;;
71665;SDS011;59503;53.486;10.196;2023-11-21T07:28:23;16.20;;;6.93;;
71665;SDS011;59503;53.486;10.196;2023-11-21T07:30:50;14.02;;;6.28;;
71665;SDS011;59503;53.486;10.196;2023-11-21T07:33:16;14.13;;;6.77;;
71665;SDS011;59503;53.486;10.196;2023-11-21T07:35:42;14.27;;;6.80;;
71665;SDS011;59503;53.486;10.196;2023-11-21T07:38:08;16.27;;;7.03;;
71665;SDS011;59503;53.486;10.196;2023-11-21T07:40:33;15.13;;;7.10;;
71665;SDS011;59503;53.486;10.196;2023-11-21T07:42:59;19.23;;;8.30;;
71665;SDS011;59503;53.486;10.196;2023-11-21T07:45:25;17.37;;;8.30;;
71665;SDS011;59503;53.486;10.196;2023-11-21T07:47:53;18.17;;;7.55;;
71665;SDS011;59503;53.486;10.196;2023-11-21T07:50:19;14.87;;;7.17;;
71665;SDS011;59503;53.486;10.196;2023-11-21T07:52:45;17.58;;;8.50;;
71665;SDS011;59503;53.486;10.196;2023-11-21T07:55:11;20.30;;;8.77;;
71665;SDS011;59503;53.486;10.196;2023-11-21T07:57:37;18.23;;;9.33;;
71665;SDS011;59503;53.486;10.196;2023-11-21T08:00:03;18.48;;;8.77;;
71665;SDS011;59503;53.486;10.196;2023-11-21T08:02:31;17.07;;;7.97;;
71665;SDS011;59503;53.486;10.196;2023-11-21T08:04:57;21.23;;;8.15;;
71665;SDS011;59503;53.486;10.196;2023-11-21T08:07:22;14.80;;;7.27;;
71665;SDS011;59503;53.486;10.196;2023-11-21T08:09:48;16.03;;;8.23;;
71665;SDS011;59503;53.486;10.196;2023-11-21T08:12:15;14.05;;;7.15;;
71665;SDS011;59503;53.486;10.196;2023-11-21T08:14:40;16.95;;;6.85;;
71665;SDS011;59503;53.486;10.196;2023-11-21T08:17:06;16.57;;;7.80;;
71665;SDS011;59503;53.486;10.196;2023-11-21T08:19:31;15.80;;;6.97;;
71665;SDS011;59503;53.486;10.196;2023-11-21T08:21:58;12.95;;;6.65;;
71665;SDS011;59503;53.486;10.196;2023-11-21T08:24:24;14.27;;;6.43;;
71665;SDS011;59503;53.486;10.196;2023-11-21T08:26:50;13.17;;;6.37;;
71665;SDS011;59503;53.486;10.196;2023-11-21T08:29:17;11.50;;;6.15;;
71665;SDS011;59503;53.486;10.196;2023-11-21T08:31:43;10.73;;;5.40;;
71665;SDS011;59503;53.486;10.196;2023-11-21T08:34:12;11.82;;;5.93;;
71665;SDS011;59503;53.486;10.196;2023-11-21T08:36:41;11.27;;;6.20;;
71665;SDS011;59503;53.486;10.196;2023-11-21T08:39:10;11.03;;;5.60;;
71665;SDS011;59503;53.486;10.196;2023-11-21T08:41:36;10.02;;;5.18;;
71665;SDS011;59503;53.486;10.196;2023-11-21T08:44:01;12.37;;;6.00;;
71665;SDS011;59503;53.486;10.196;2023-11-21T08:46:31;10.80;;;5.50;;
71665;SDS011;59503;53.486;10.196;2023-11-21T08:48:56;12.77;;;5.60;;
71665;SDS011;59503;53.486;10.196;2023-11-21T08:51:22;8.40;;;4.60;;
71665;SDS011;59503;53.486;10.196;2023-11-21T08:53:47;14.03;;;5.00;;
71665;SDS011;59503;53.486;10.196;2023-11-21T08:56:13;14.07;;;5.23;;
71665;SDS011;59503;53.486;10.196;2023-11-21T08:58:41;9.27;;;4.82;;
71665;SDS011;59503;53.486;10.196;2023-11-21T09:01:07;10.33;;;5.00;;
71665;SDS011;59503;53.486;10.196;2023-11-21T09:03:32;10.30;;;4.57;;
71665;SDS011;59503;53.486;10.196;2023-11-21T09:05:59;10.23;;;4.63;;
71665;SDS011;59503;53.486;10.196;2023-11-21T09:08:24;15.27;;;4.93;;
71665;SDS011;59503;53.486;10.196;2023-11-21T09:10:50;11.73;;;4.63;;
71665;SDS011;59503;53.486;10.196;2023-11-21T09:13:16;9.18;;;5.00;;
71665;SDS011;59503;53.486;10.196;2023-11-21T09:15:43;8.50;;;4.40;;
71665;SDS011;59503;53.486;10.196;2023-11-21T09:18:12;12.93;;;4.00;;
71665;SDS011;59503;53.486;10.196;2023-11-21T09:20:41;11.55;;;4.70;;
71665;SDS011;59503;53.486;10.196;2023-11-21T09:23:09;8.63;;;4.50;;
71665;SDS011;59503;53.486;10.196;2023-11-21T09:25:34;7.33;;;4.37;;
71665;SDS011;59503;53.486;10.196;2023-11-21T09:28:00;6.85;;;4.03;;
71665;SDS011;59503;53.486;10.196;2023-11-21T09:30:25;7.03;;;4.10;;
71665;SDS011;59503;53.486;10.196;2023-11-21T09:32:51;9.23;;;3.90;;
71665;SDS011;59503;53.486;10.196;2023-11-21T09:35:16;8.05;;;3.67;;
71665;SDS011;59503;53.486;10.196;2023-11-21T09:37:43;6.37;;;3.90;;
71665;SDS011;59503;53.486;10.196;2023-11-21T09:40:11;7.45;;;3.72;;
71665;SDS011;59503;53.486;10.196;2023-11-21T09:45:27;6.55;;;3.38;;
71665;SDS011;59503;53.486;10.196;2023-11-21T09:47:54;5.72;;;2.88;;
71665;SDS011;59503;53.486;10.196;2023-11-21T09:50:23;7.07;;;3.03;;
71665;SDS011;59503;53.486;10.196;2023-11-21T09:55:28;4.68;;;2.92;;
71665;SDS011;59503;53.486;10.196;2023-11-21T09:57:55;6.10;;;2.55;;
71665;SDS011;59503;53.486;10.196;2023-11-21T10:00:22;6.65;;;3.03;;
71665;SDS011;59503;53.486;10.196;2023-11-21T10:02:49;5.07;;;2.53;;
71665;SDS011;59503;53.486;10.196;2023-11-21T10:05:15;6.93;;;3.22;;
71665;SDS011;59503;53.486;10.196;2023-11-21T10:07:45;6.53;;;2.70;;
71665;SDS011;59503;53.486;10.196;2023-11-21T10:10:12;5.90;;;2.92;;
71665;SDS011;59503;53.486;10.196;2023-11-21T10:12:39;5.10;;;2.90;;
71665;SDS011;59503;53.486;10.196;2023-11-21T10:15:07;4.53;;;2.70;;
71665;SDS011;59503;53.486;10.196;2023-11-21T10:17:35;4.10;;;2.50;;
71665;SDS011;59503;53.486;10.196;2023-11-21T10:20:08;4.35;;;2.40;;
71665;SDS011;59503;53.486;10.196;2023-11-21T10:22:40;5.20;;;2.80;;
71665;SDS011;59503;53.486;10.196;2023-11-21T10:25:09;4.95;;;2.53;;
71665;SDS011;59503;53.486;10.196;2023-11-21T10:27:36;5.23;;;2.47;;
71665;SDS011;59503;53.486;10.196;2023-11-21T10:30:06;6.78;;;2.60;;
71665;SDS011;59503;53.486;10.196;2023-11-21T10:32:41;8.75;;;2.80;;
71665;SDS011;59503;53.486;10.196;2023-11-21T10:35:08;5.47;;;2.30;;
71665;SDS011;59503;53.486;10.196;2023-11-21T10:37:37;4.53;;;2.30;;
71665;SDS011;59503;53.486;10.196;2023-11-21T10:40:06;4.97;;;2.40;;
71665;SDS011;59503;53.486;10.196;2023-11-21T10:42:33;5.00;;;2.70;;
71665;SDS011;59503;53.486;10.196;2023-11-21T10:44:58;5.60;;;2.23;;
71665;SDS011;59503;53.486;10.196;2023-11-21T10:47:25;5.60;;;2.70;;
71665;SDS011;59503;53.486;10.196;2023-11-21T10:49:51;4.50;;;2.50;;
71665;SDS011;59503;53.486;10.196;2023-11-21T10:52:21;6.43;;;3.00;;
71665;SDS011;59503;53.486;10.196;2023-11-21T10:54:47;3.70;;;2.05;;
71665;SDS011;59503;53.486;10.196;2023-11-21T10:57:14;7.00;;;3.43;;
71665;SDS011;59503;53.486;10.196;2023-11-21T10:59:43;5.72;;;2.50;;
71665;SDS011;59503;53.486;10.196;2023-11-21T11:02:30;5.57;;;2.40;;
71665;SDS011;59503;53.486;10.196;2023-11-21T11:04:58;3.90;;;2.40;;
71665;SDS011;59503;53.486;10.196;2023-11-21T11:07:26;4.95;;;2.50;;
71665;SDS011;59503;53.486;10.196;2023-11-21T11:09:55;4.75;;;2.33;;
71665;SDS011;59503;53.486;10.196;2023-11-21T11:12:23;4.40;;;2.55;;
71665;SDS011;59503;53.486;10.196;2023-11-21T11:14:49;5.07;;;2.93;;
71665;SDS011;59503;53.486;10.196;2023-11-21T11:17:16;4.57;;;2.20;;
71665;SDS011;59503;53.486;10.196;2023-11-21T11:19:45;8.23;;;2.40;;
71665;SDS011;59503;53.486;10.196;2023-11-21T11:38:51;5.47;;;2.63;;
71665;SDS011;59503;53.486;10.196;2023-11-21T11:41:27;5.23;;;2.70;;
71665;SDS011;59503;53.486;10.196;2023-11-21T11:43:57;6.20;;;2.75;;
71665;SDS011;59503;53.486;10.196;2023-11-21T11:46:42;5.30;;;2.30;;
71665;SDS011;59503;53.486;10.196;2023-11-21T11:49:22;6.05;;;2.55;;
71665;SDS011;59503;53.486;10.196;2023-11-21T11:52:18;5.93;;;2.85;;
71665;SDS011;59503;53.486;10.196;2023-11-21T11:54:55;4.67;;;2.50;;
71665;SDS011;59503;53.486;10.196;2023-11-21T11:57:23;6.55;;;2.70;;
71665;SDS011;59503;53.486;10.196;2023-11-21T12:02:36;3.45;;;2.20;;
71665;SDS011;59503;53.486;10.196;2023-11-21T12:05:10;7.40;;;3.10;;
71665;SDS011;59503;53.486;10.196;2023-11-21T12:07:52;6.20;;;2.67;;
71665;SDS011;59503;53.486;10.196;2023-11-21T12:10:23;4.88;;;2.90;;
71665;SDS011;59503;53.486;10.196;2023-11-21T12:12:50;7.38;;;2.55;;
71665;SDS011;59503;53.486;10.196;2023-11-21T12:15:17;4.82;;;2.50;;
71665;SDS011;59503;53.486;10.196;2023-11-21T12:17:44;6.03;;;2.67;;
71665;SDS011;59503;53.486;10.196;2023-11-21T12:20:11;4.53;;;2.58;;
71665;SDS011;59503;53.486;10.196;2023-11-21T12:22:42;6.13;;;2.38;;
71665;SDS011;59503;53.486;10.196;2023-11-21T12:25:09;6.15;;;2.80;;
71665;SDS011;59503;53.486;10.196;2023-11-21T12:27:34;4.57;;;2.60;;
71665;SDS011;59503;53.486;10.196;2023-11-21T12:30:00;6.88;;;2.30;;
71665;SDS011;59503;53.486;10.196;2023-11-21T12:32:25;5.70;;;2.67;;
71665;SDS011;59503;53.486;10.196;2023-11-21T12:34:51;5.00;;;2.38;;
71665;SDS011;59503;53.486;10.196;2023-11-21T12:37:17;9.90;;;2.83;;
71665;SDS011;59503;53.486;10.196;2023-11-21T12:39:43;7.22;;;3.00;;
71665;SDS011;59503;53.486;10.196;2023-11-21T12:42:09;7.90;;;2.70;;
71665;SDS011;59503;53.486;10.196;2023-11-21T12:44:35;8.20;;;3.22;;
71665;SDS011;59503;53.486;10.196;2023-11-21T12:47:02;6.13;;;2.47;;
71665;SDS011;59503;53.486;10.196;2023-11-21T12:49:28;11.20;;;3.00;;
71665;SDS011;59503;53.486;10.196;2023-11-21T12:51:53;4.45;;;2.80;;
71665;SDS011;59503;53.486;10.196;2023-11-21T12:54:19;4.37;;;2.90;;
71665;SDS011;59503;53.486;10.196;2023-11-21T12:56:45;6.88;;;2.80;;
71665;SDS011;59503;53.486;10.196;2023-11-21T12:59:14;5.85;;;2.85;;
71665;SDS011;59503;53.486;10.196;2023-11-21T13:01:44;5.47;;;3.00;;
71665;SDS011;59503;53.486;10.196;2023-11-21T13:04:11;4.63;;;2.63;;
71665;SDS011;59503;53.486;10.196;2023-11-21T13:06:36;4.68;;;2.58;;
71665;SDS011;59503;53.486;10.196;2023-11-21T13:09:07;4.00;;;2.37;;
71665;SDS011;59503;53.486;10.196;2023-11-21T13:11:36;4.90;;;2.97;;
71665;SDS011;59503;53.486;10.196;2023-11-21T13:14:02;7.93;;;2.70;;
71665;SDS011;59503;53.486;10.196;2023-11-21T13:16:28;5.78;;;3.10;;
71665;SDS011;59503;53.486;10.196;2023-11-21T13:18:55;7.05;;;2.80;;
71665;SDS011;59503;53.486;10.196;2023-11-21T13:21:21;6.27;;;2.67;;
71665;SDS011;59503;53.486;10.196;2023-11-21T13:23:47;5.95;;;2.78;;
71665;SDS011;59503;53.486;10.196;2023-11-21T13:26:13;4.47;;;2.90;;
71665;SDS011;59503;53.486;10.196;2023-11-21T13:28:40;6.90;;;2.75;;
71665;SDS011;59503;53.486;10.196;2023-11-21T13:31:10;7.53;;;2.77;;
71665;SDS011;59503;53.486;10.196;2023-11-21T13:33:46;5.85;;;2.47;;
71665;SDS011;59503;53.486;10.196;2023-11-21T13:36:20;4.65;;;3.00;;
71665;SDS011;59503;53.486;10.196;2023-11-21T13:38:49;8.00;;;2.70;;
71665;SDS011;59503;53.486;10.196;2023-11-21T13:41:15;7.22;;;2.83;;
71665;SDS011;59503;53.486;10.196;2023-11-21T13:43:42;6.67;;;2.80;;
71665;SDS011;59503;53.486;10.196;2023-11-21T13:46:13;7.70;;;3.00;;
71665;SDS011;59503;53.486;10.196;2023-11-21T13:48:42;5.05;;;2.45;;
71665;SDS011;59503;53.486;10.196;2023-11-21T13:51:08;9.73;;;2.67;;
71665;SDS011;59503;53.486;10.196;2023-11-21T13:53:44;4.90;;;2.60;;
71665;SDS011;59503;53.486;10.196;2023-11-21T13:56:12;6.07;;;2.67;;
71665;SDS011;59503;53.486;10.196;2023-11-21T13:58:42;4.85;;;2.65;;
71665;SDS011;59503;53.486;10.196;2023-11-21T14:01:16;11.38;;;3.13;;
71665;SDS011;59503;53.486;10.196;2023-11-21T14:04:02;6.05;;;2.80;;
71665;SDS011;59503;53.486;10.196;2023-11-21T14:06:42;5.20;;;2.90;;
71665;SDS011;59503;53.486;10.196;2023-11-21T14:09:20;5.53;;;2.70;;
71665;SDS011;59503;53.486;10.196;2023-11-21T14:11:53;9.45;;;3.08;;
71665;SDS011;59503;53.486;10.196;2023-11-21T14:14:23;8.20;;;3.38;;
71665;SDS011;59503;53.486;10.196;2023-11-21T14:16:50;5.72;;;2.45;;
71665;SDS011;59503;53.486;10.196;2023-11-21T14:19:16;6.93;;;2.97;;
71665;SDS011;59503;53.486;10.196;2023-11-21T14:21:43;9.55;;;3.20;;
71665;SDS011;59503;53.486;10.196;2023-11-21T14:24:09;6.15;;;3.17;;
71665;SDS011;59503;53.486;10.196;2023-11-21T14:26:38;9.23;;;2.72;;
71665;SDS011;59503;53.486;10.196;2023-11-21T14:29:04;5.50;;;2.50;;
71665;SDS011;59503;53.486;10.196;2023-11-21T14:31:31;7.57;;;2.60;;
71665;SDS011;59503;53.486;10.196;2023-11-21T14:33:57;5.78;;;2.38;;
71665;SDS011;59503;53.486;10.196;2023-11-21T14:36:22;5.18;;;2.30;;
71665;SDS011;59503;53.486;10.196;2023-11-21T14:38:49;5.00;;;2.00;;
71665;SDS011;59503;53.486;10.196;2023-11-21T14:41:14;5.93;;;2.10;;
71665;SDS011;59503;53.486;10.196;2023-11-21T14:43:40;4.87;;;2.27;;
71665;SDS011;59503;53.486;10.196;2023-11-21T14:46:06;4.60;;;2.08;;
71665;SDS011;59503;53.486;10.196;2023-11-21T14:48:35;4.93;;;2.30;;
71665;SDS011;59503;53.486;10.196;2023-11-21T14:51:13;4.57;;;2.30;;